sensor_id;sensor_type;location;lat;lon;timestamp;temperature;humidity
2603;DHT22;1311;47.966;7.958;2023-06-19T00:00:06;19.40;1.00
2603;DHT22;1311;47.966;7.958;2023-06-19T00:02:41;19.40;1.00
2603;DHT22;1311;47.966;7.958;2023-06-19T00:05:08;19.50;1.00
2603;DHT22;1311;47.966;7.958;2023-06-19T00:07:36;19.50;1.00
2603;DHT22;1311;47.966;7.958;2023-06-19T00:10:03;19.50;1.00
2603;DHT22;1311;47.966;7.958;2023-06-19T00:12:30;19.50;1.00
2603;DHT22;1311;47.966;7.958;2023-06-19T00:14:57;19.50;1.00
2603;DHT22;1311;47.966;7.958;2023-06-19T00:17:25;19.60;12.50
2603;DHT22;1311;47.966;7.958;2023-06-19T00:19:53;19.70;34.00
2603;DHT22;1311;47.966;7.958;2023-06-19T00:22:20;19.70;59.70
2603;DHT22;1311;47.966;7.958;2023-06-19T00:24:47;19.80;99.30
2603;DHT22;1311;47.966;7.958;2023-06-19T00:27:14;20.00;99.90
2603;DHT22;1311;47.966;7.958;2023-06-19T00:29:40;20.00;99.90
2603;DHT22;1311;47.966;7.958;2023-06-19T00:32:07;20.10;99.90
2603;DHT22;1311;47.966;7.958;2023-06-19T00:34:36;20.10;99.90
2603;DHT22;1311;47.966;7.958;2023-06-19T00:37:04;20.10;99.90
2603;DHT22;1311;47.966;7.958;2023-06-19T00:39:30;20.20;99.90
2603;DHT22;1311;47.966;7.958;2023-06-19T00:41:58;20.20;99.90
2603;DHT22;1311;47.966;7.958;2023-06-19T00:44:25;20.20;99.90
2603;DHT22;1311;47.966;7.958;2023-06-19T00:46:56;20.10;99.90
2603;DHT22;1311;47.966;7.958;2023-06-19T00:49:24;20.10;99.90
2603;DHT22;1311;47.966;7.958;2023-06-19T00:51:53;20.00;99.90
2603;DHT22;1311;47.966;7.958;2023-06-19T00:54:20;20.00;99.90
2603;DHT22;1311;47.966;7.958;2023-06-19T00:56:47;20.00;99.90
2603;DHT22;1311;47.966;7.958;2023-06-19T00:59:16;19.90;99.90
2603;DHT22;1311;47.966;7.958;2023-06-19T01:01:44;19.90;99.90
2603;DHT22;1311;47.966;7.958;2023-06-19T01:04:10;19.80;99.90
2603;DHT22;1311;47.966;7.958;2023-06-19T01:06:42;19.80;99.90
2603;DHT22;1311;47.966;7.958;2023-06-19T01:09:14;19.80;99.90
2603;DHT22;1311;47.966;7.958;2023-06-19T01:11:46;19.80;99.90
2603;DHT22;1311;47.966;7.958;2023-06-19T01:14:18;19.80;99.90
2603;DHT22;1311;47.966;7.958;2023-06-19T01:16:45;19.80;99.90
2603;DHT22;1311;47.966;7.958;2023-06-19T01:19:16;19.80;99.90
2603;DHT22;1311;47.966;7.958;2023-06-19T01:21:44;19.80;99.90
2603;DHT22;1311;47.966;7.958;2023-06-19T01:24:13;19.80;99.90
2603;DHT22;1311;47.966;7.958;2023-06-19T01:26:40;19.80;99.90
2603;DHT22;1311;47.966;7.958;2023-06-19T01:29:07;19.80;99.90
2603;DHT22;1311;47.966;7.958;2023-06-19T01:31:38;19.80;99.90
2603;DHT22;1311;47.966;7.958;2023-06-19T01:34:09;19.70;99.90
2603;DHT22;1311;47.966;7.958;2023-06-19T01:36:37;19.60;99.90
2603;DHT22;1311;47.966;7.958;2023-06-19T01:39:04;19.70;99.90
2603;DHT22;1311;47.966;7.958;2023-06-19T01:41:34;19.70;99.90
2603;DHT22;1311;47.966;7.958;2023-06-19T01:44:00;19.70;99.90
2603;DHT22;1311;47.966;7.958;2023-06-19T01:46:28;19.70;99.90
2603;DHT22;1311;47.966;7.958;2023-06-19T01:48:55;19.70;99.90
2603;DHT22;1311;47.966;7.958;2023-06-19T01:51:21;19.70;99.90
2603;DHT22;1311;47.966;7.958;2023-06-19T01:53:48;19.70;99.90
2603;DHT22;1311;47.966;7.958;2023-06-19T01:56:15;19.70;99.90
2603;DHT22;1311;47.966;7.958;2023-06-19T01:58:43;19.60;99.90
2603;DHT22;1311;47.966;7.958;2023-06-19T02:01:10;19.50;99.90
2603;DHT22;1311;47.966;7.958;2023-06-19T02:03:37;19.40;99.90
2603;DHT22;1311;47.966;7.958;2023-06-19T02:06:04;19.40;99.90
2603;DHT22;1311;47.966;7.958;2023-06-19T02:08:30;19.30;99.90
2603;DHT22;1311;47.966;7.958;2023-06-19T02:10:57;19.30;99.90
2603;DHT22;1311;47.966;7.958;2023-06-19T02:13:24;19.20;99.90
2603;DHT22;1311;47.966;7.958;2023-06-19T02:15:52;19.30;99.90
2603;DHT22;1311;47.966;7.958;2023-06-19T02:18:19;19.20;99.90
2603;DHT22;1311;47.966;7.958;2023-06-19T02:20:46;18.90;99.90
2603;DHT22;1311;47.966;7.958;2023-06-19T02:23:12;18.80;99.90
2603;DHT22;1311;47.966;7.958;2023-06-19T02:25:39;18.80;99.90
2603;DHT22;1311;47.966;7.958;2023-06-19T02:28:06;18.80;99.90
2603;DHT22;1311;47.966;7.958;2023-06-19T02:30:33;18.80;99.90
2603;DHT22;1311;47.966;7.958;2023-06-19T02:33:01;18.80;99.90
2603;DHT22;1311;47.966;7.958;2023-06-19T02:35:27;18.80;99.90
2603;DHT22;1311;47.966;7.958;2023-06-19T02:37:54;18.80;99.90
2603;DHT22;1311;47.966;7.958;2023-06-19T02:40:21;18.70;99.90
2603;DHT22;1311;47.966;7.958;2023-06-19T02:42:48;18.70;99.90
2603;DHT22;1311;47.966;7.958;2023-06-19T02:45:15;18.80;99.90
2603;DHT22;1311;47.966;7.958;2023-06-19T02:47:42;18.70;99.90
2603;DHT22;1311;47.966;7.958;2023-06-19T02:50:10;18.70;99.90
2603;DHT22;1311;47.966;7.958;2023-06-19T02:52:37;18.70;99.90
2603;DHT22;1311;47.966;7.958;2023-06-19T02:55:04;18.70;99.90
2603;DHT22;1311;47.966;7.958;2023-06-19T02:57:32;18.60;99.90
2603;DHT22;1311;47.966;7.958;2023-06-19T02:59:59;18.60;99.90
2603;DHT22;1311;47.966;7.958;2023-06-19T03:02:26;18.60;99.90
2603;DHT22;1311;47.966;7.958;2023-06-19T03:04:53;18.60;99.90
2603;DHT22;1311;47.966;7.958;2023-06-19T03:07:21;18.60;99.90
2603;DHT22;1311;47.966;7.958;2023-06-19T03:09:48;18.50;99.90
2603;DHT22;1311;47.966;7.958;2023-06-19T03:12:14;18.50;99.90
2603;DHT22;1311;47.966;7.958;2023-06-19T03:14:41;18.50;99.90
2603;DHT22;1311;47.966;7.958;2023-06-19T03:17:08;18.50;99.90
2603;DHT22;1311;47.966;7.958;2023-06-19T03:19:35;18.50;99.90
2603;DHT22;1311;47.966;7.958;2023-06-19T03:22:01;18.40;99.90
2603;DHT22;1311;47.966;7.958;2023-06-19T03:24:30;18.30;99.90
2603;DHT22;1311;47.966;7.958;2023-06-19T03:26:56;18.30;99.90
2603;DHT22;1311;47.966;7.958;2023-06-19T03:29:23;18.30;99.90
2603;DHT22;1311;47.966;7.958;2023-06-19T03:31:50;18.30;99.90
2603;DHT22;1311;47.966;7.958;2023-06-19T03:34:17;18.20;99.90
2603;DHT22;1311;47.966;7.958;2023-06-19T03:36:43;18.20;99.90
2603;DHT22;1311;47.966;7.958;2023-06-19T03:39:10;18.10;99.90
2603;DHT22;1311;47.966;7.958;2023-06-19T03:41:38;18.00;99.90
2603;DHT22;1311;47.966;7.958;2023-06-19T03:44:05;18.00;99.90
2603;DHT22;1311;47.966;7.958;2023-06-19T03:46:32;18.00;99.90
2603;DHT22;1311;47.966;7.958;2023-06-19T03:48:59;18.00;99.90
2603;DHT22;1311;47.966;7.958;2023-06-19T03:51:25;18.00;99.90
2603;DHT22;1311;47.966;7.958;2023-06-19T03:53:54;18.00;99.90
2603;DHT22;1311;47.966;7.958;2023-06-19T03:56:21;18.00;99.90
2603;DHT22;1311;47.966;7.958;2023-06-19T03:58:49;18.00;99.90
2603;DHT22;1311;47.966;7.958;2023-06-19T04:01:16;17.90;99.90
2603;DHT22;1311;47.966;7.958;2023-06-19T04:03:42;17.90;99.90
2603;DHT22;1311;47.966;7.958;2023-06-19T04:06:09;17.90;99.90
2603;DHT22;1311;47.966;7.958;2023-06-19T04:08:36;18.00;99.90
2603;DHT22;1311;47.966;7.958;2023-06-19T04:11:03;18.00;99.90
2603;DHT22;1311;47.966;7.958;2023-06-19T04:13:29;18.00;99.90
2603;DHT22;1311;47.966;7.958;2023-06-19T04:15:57;18.00;99.90
2603;DHT22;1311;47.966;7.958;2023-06-19T04:18:24;18.20;99.90
2603;DHT22;1311;47.966;7.958;2023-06-19T04:20:52;18.20;99.90
2603;DHT22;1311;47.966;7.958;2023-06-19T04:23:19;18.30;99.90
2603;DHT22;1311;47.966;7.958;2023-06-19T04:25:46;18.30;99.90
2603;DHT22;1311;47.966;7.958;2023-06-19T04:28:13;18.30;99.90
2603;DHT22;1311;47.966;7.958;2023-06-19T04:30:39;18.40;99.90
2603;DHT22;1311;47.966;7.958;2023-06-19T04:33:07;18.50;99.90
2603;DHT22;1311;47.966;7.958;2023-06-19T04:35:34;18.50;99.90
2603;DHT22;1311;47.966;7.958;2023-06-19T04:38:05;18.60;99.90
2603;DHT22;1311;47.966;7.958;2023-06-19T04:40:32;18.60;99.90
2603;DHT22;1311;47.966;7.958;2023-06-19T04:42:59;18.60;99.90
2603;DHT22;1311;47.966;7.958;2023-06-19T04:45:25;18.70;99.90
2603;DHT22;1311;47.966;7.958;2023-06-19T04:47:52;18.80;99.90
2603;DHT22;1311;47.966;7.958;2023-06-19T04:50:21;18.90;99.90
2603;DHT22;1311;47.966;7.958;2023-06-19T04:52:47;19.00;99.90
2603;DHT22;1311;47.966;7.958;2023-06-19T04:55:16;19.20;99.90
2603;DHT22;1311;47.966;7.958;2023-06-19T04:57:42;19.30;99.90
2603;DHT22;1311;47.966;7.958;2023-06-19T05:00:10;19.40;99.90
2603;DHT22;1311;47.966;7.958;2023-06-19T05:02:38;19.30;99.90
2603;DHT22;1311;47.966;7.958;2023-06-19T05:05:09;19.40;99.90
2603;DHT22;1311;47.966;7.958;2023-06-19T05:07:37;19.60;99.90
2603;DHT22;1311;47.966;7.958;2023-06-19T05:10:04;19.40;99.90
2603;DHT22;1311;47.966;7.958;2023-06-19T05:12:31;19.30;99.90
2603;DHT22;1311;47.966;7.958;2023-06-19T05:14:57;19.40;99.90
2603;DHT22;1311;47.966;7.958;2023-06-19T05:17:24;19.50;99.90
2603;DHT22;1311;47.966;7.958;2023-06-19T05:19:51;19.50;99.90
2603;DHT22;1311;47.966;7.958;2023-06-19T05:22:18;19.60;99.90
2603;DHT22;1311;47.966;7.958;2023-06-19T05:24:48;19.60;99.90
2603;DHT22;1311;47.966;7.958;2023-06-19T05:27:15;19.60;99.90
2603;DHT22;1311;47.966;7.958;2023-06-19T05:29:41;19.40;99.90
2603;DHT22;1311;47.966;7.958;2023-06-19T05:32:08;19.50;99.90
2603;DHT22;1311;47.966;7.958;2023-06-19T05:34:35;19.70;99.90
2603;DHT22;1311;47.966;7.958;2023-06-19T05:37:02;20.00;99.90
2603;DHT22;1311;47.966;7.958;2023-06-19T05:39:29;20.30;99.90
2603;DHT22;1311;47.966;7.958;2023-06-19T05:41:57;20.40;99.90
2603;DHT22;1311;47.966;7.958;2023-06-19T05:44:24;20.50;99.90
2603;DHT22;1311;47.966;7.958;2023-06-19T05:46:50;21.30;99.90
2603;DHT22;1311;47.966;7.958;2023-06-19T05:49:17;22.40;99.90
2603;DHT22;1311;47.966;7.958;2023-06-19T05:51:44;22.70;99.90
2603;DHT22;1311;47.966;7.958;2023-06-19T05:54:11;23.20;99.90
2603;DHT22;1311;47.966;7.958;2023-06-19T05:56:37;24.90;99.90
2603;DHT22;1311;47.966;7.958;2023-06-19T05:59:06;26.80;99.90
2603;DHT22;1311;47.966;7.958;2023-06-19T06:01:33;27.70;99.90
2603;DHT22;1311;47.966;7.958;2023-06-19T06:03:59;26.10;99.90
2603;DHT22;1311;47.966;7.958;2023-06-19T06:06:27;25.50;99.90
2603;DHT22;1311;47.966;7.958;2023-06-19T06:08:54;25.00;99.90
2603;DHT22;1311;47.966;7.958;2023-06-19T06:11:22;24.80;99.90
2603;DHT22;1311;47.966;7.958;2023-06-19T06:13:49;25.50;99.90
2603;DHT22;1311;47.966;7.958;2023-06-19T06:16:17;28.30;99.90
2603;DHT22;1311;47.966;7.958;2023-06-19T06:18:44;28.30;99.90
2603;DHT22;1311;47.966;7.958;2023-06-19T06:21:11;28.40;99.90
2603;DHT22;1311;47.966;7.958;2023-06-19T06:23:40;27.60;99.90
2603;DHT22;1311;47.966;7.958;2023-06-19T06:26:06;26.40;99.90
2603;DHT22;1311;47.966;7.958;2023-06-19T06:28:33;26.20;99.90
2603;DHT22;1311;47.966;7.958;2023-06-19T06:31:00;26.00;99.90
2603;DHT22;1311;47.966;7.958;2023-06-19T06:33:29;25.90;99.90
2603;DHT22;1311;47.966;7.958;2023-06-19T06:35:58;26.30;99.90
2603;DHT22;1311;47.966;7.958;2023-06-19T06:38:25;25.90;99.90
2603;DHT22;1311;47.966;7.958;2023-06-19T06:40:51;26.30;99.90
2603;DHT22;1311;47.966;7.958;2023-06-19T06:43:18;26.50;99.90
2603;DHT22;1311;47.966;7.958;2023-06-19T06:45:45;25.80;99.90
2603;DHT22;1311;47.966;7.958;2023-06-19T06:48:12;25.10;99.90
2603;DHT22;1311;47.966;7.958;2023-06-19T06:50:40;24.50;99.90
2603;DHT22;1311;47.966;7.958;2023-06-19T06:53:07;24.60;99.90
2603;DHT22;1311;47.966;7.958;2023-06-19T06:55:34;24.60;99.90
2603;DHT22;1311;47.966;7.958;2023-06-19T06:58:01;24.50;99.90
2603;DHT22;1311;47.966;7.958;2023-06-19T07:00:28;24.40;99.90
2603;DHT22;1311;47.966;7.958;2023-06-19T07:02:55;24.50;99.90
2603;DHT22;1311;47.966;7.958;2023-06-19T07:05:22;24.60;99.90
2603;DHT22;1311;47.966;7.958;2023-06-19T07:07:50;24.90;99.90
2603;DHT22;1311;47.966;7.958;2023-06-19T07:10:17;24.70;99.90
2603;DHT22;1311;47.966;7.958;2023-06-19T07:12:45;24.70;99.90
2603;DHT22;1311;47.966;7.958;2023-06-19T07:15:11;24.60;99.90
2603;DHT22;1311;47.966;7.958;2023-06-19T07:17:38;24.60;99.90
2603;DHT22;1311;47.966;7.958;2023-06-19T07:20:06;24.50;99.90
2603;DHT22;1311;47.966;7.958;2023-06-19T07:22:33;24.80;99.90
2603;DHT22;1311;47.966;7.958;2023-06-19T07:25:01;24.80;99.90
2603;DHT22;1311;47.966;7.958;2023-06-19T07:27:29;25.00;99.90
2603;DHT22;1311;47.966;7.958;2023-06-19T07:29:56;25.40;99.90
2603;DHT22;1311;47.966;7.958;2023-06-19T07:32:22;25.50;99.90
2603;DHT22;1311;47.966;7.958;2023-06-19T07:34:49;25.80;99.90
2603;DHT22;1311;47.966;7.958;2023-06-19T07:37:16;25.90;34.60
2603;DHT22;1311;47.966;7.958;2023-06-19T07:39:44;26.10;1.00
2603;DHT22;1311;47.966;7.958;2023-06-19T07:42:13;25.90;1.00
2603;DHT22;1311;47.966;7.958;2023-06-19T07:44:40;26.00;1.00
2603;DHT22;1311;47.966;7.958;2023-06-19T07:47:07;26.20;99.90
2603;DHT22;1311;47.966;7.958;2023-06-19T07:49:34;26.60;1.00
2603;DHT22;1311;47.966;7.958;2023-06-19T07:52:01;26.90;25.30
2603;DHT22;1311;47.966;7.958;2023-06-19T07:54:28;27.20;71.90
2603;DHT22;1311;47.966;7.958;2023-06-19T07:56:55;27.20;99.90
2603;DHT22;1311;47.966;7.958;2023-06-19T07:59:23;27.10;80.20
2603;DHT22;1311;47.966;7.958;2023-06-19T08:01:49;27.30;52.00
2603;DHT22;1311;47.966;7.958;2023-06-19T08:04:16;27.20;1.00
2603;DHT22;1311;47.966;7.958;2023-06-19T08:06:43;26.60;1.00
2603;DHT22;1311;47.966;7.958;2023-06-19T08:09:09;26.70;1.00
2603;DHT22;1311;47.966;7.958;2023-06-19T08:11:36;26.70;1.00
2603;DHT22;1311;47.966;7.958;2023-06-19T08:14:03;26.30;99.90
2603;DHT22;1311;47.966;7.958;2023-06-19T08:16:31;26.10;99.90
2603;DHT22;1311;47.966;7.958;2023-06-19T08:18:58;25.90;99.90
2603;DHT22;1311;47.966;7.958;2023-06-19T08:21:25;25.90;1.00
2603;DHT22;1311;47.966;7.958;2023-06-19T08:23:51;26.00;99.90
2603;DHT22;1311;47.966;7.958;2023-06-19T08:26:18;26.10;1.00
2603;DHT22;1311;47.966;7.958;2023-06-19T08:28:45;26.10;99.90
2603;DHT22;1311;47.966;7.958;2023-06-19T08:31:13;25.70;1.00
2603;DHT22;1311;47.966;7.958;2023-06-19T08:33:41;25.70;99.90
2603;DHT22;1311;47.966;7.958;2023-06-19T08:36:08;25.70;99.90
2603;DHT22;1311;47.966;7.958;2023-06-19T08:38:34;26.00;1.00
2603;DHT22;1311;47.966;7.958;2023-06-19T08:41:01;26.20;1.00
2603;DHT22;1311;47.966;7.958;2023-06-19T08:43:28;26.60;10.20
2603;DHT22;1311;47.966;7.958;2023-06-19T08:46:14;26.90;99.90
2603;DHT22;1311;47.966;7.958;2023-06-19T08:48:44;26.80;1.00
2603;DHT22;1311;47.966;7.958;2023-06-19T08:51:12;26.70;1.00
2603;DHT22;1311;47.966;7.958;2023-06-19T08:53:44;26.60;1.00
2603;DHT22;1311;47.966;7.958;2023-06-19T08:56:11;26.90;99.90
2603;DHT22;1311;47.966;7.958;2023-06-19T08:58:38;26.90;99.90
2603;DHT22;1311;47.966;7.958;2023-06-19T09:01:05;26.80;99.90
2603;DHT22;1311;47.966;7.958;2023-06-19T09:03:32;26.70;1.00
2603;DHT22;1311;47.966;7.958;2023-06-19T09:06:04;27.00;1.00
2603;DHT22;1311;47.966;7.958;2023-06-19T09:08:32;27.10;99.90
2603;DHT22;1311;47.966;7.958;2023-06-19T09:11:01;27.20;1.00
2603;DHT22;1311;47.966;7.958;2023-06-19T09:13:28;27.30;1.00
2603;DHT22;1311;47.966;7.958;2023-06-19T09:16:00;27.20;99.90
2603;DHT22;1311;47.966;7.958;2023-06-19T09:18:29;27.00;99.90
2603;DHT22;1311;47.966;7.958;2023-06-19T09:20:55;26.90;99.90
2603;DHT22;1311;47.966;7.958;2023-06-19T09:23:25;27.10;99.90
2603;DHT22;1311;47.966;7.958;2023-06-19T09:25:53;27.20;73.00
2603;DHT22;1311;47.966;7.958;2023-06-19T09:28:22;27.20;1.00
2603;DHT22;1311;47.966;7.958;2023-06-19T09:30:53;27.40;1.00
2603;DHT22;1311;47.966;7.958;2023-06-19T09:33:20;27.20;1.00
2603;DHT22;1311;47.966;7.958;2023-06-19T09:35:47;27.10;1.00
2603;DHT22;1311;47.966;7.958;2023-06-19T09:38:16;26.90;99.90
2603;DHT22;1311;47.966;7.958;2023-06-19T09:40:45;27.00;99.90
2603;DHT22;1311;47.966;7.958;2023-06-19T09:43:15;27.30;99.90
2603;DHT22;1311;47.966;7.958;2023-06-19T09:45:47;27.30;99.90
2603;DHT22;1311;47.966;7.958;2023-06-19T09:48:18;27.30;99.90
2603;DHT22;1311;47.966;7.958;2023-06-19T09:50:48;27.20;99.90
2603;DHT22;1311;47.966;7.958;2023-06-19T09:53:15;27.30;99.90
2603;DHT22;1311;47.966;7.958;2023-06-19T09:55:42;27.30;99.90
2603;DHT22;1311;47.966;7.958;2023-06-19T09:58:10;27.30;99.90
2603;DHT22;1311;47.966;7.958;2023-06-19T10:00:37;27.40;99.90
2603;DHT22;1311;47.966;7.958;2023-06-19T10:03:04;27.40;99.90
2603;DHT22;1311;47.966;7.958;2023-06-19T10:05:37;27.50;99.90
2603;DHT22;1311;47.966;7.958;2023-06-19T10:08:04;27.30;99.90
2603;DHT22;1311;47.966;7.958;2023-06-19T10:10:32;27.50;99.90
2603;DHT22;1311;47.966;7.958;2023-06-19T10:13:11;27.50;95.50
2603;DHT22;1311;47.966;7.958;2023-06-19T10:15:42;27.50;86.50
2603;DHT22;1311;47.966;7.958;2023-06-19T10:18:13;27.50;99.90
2603;DHT22;1311;47.966;7.958;2023-06-19T10:20:41;27.20;99.90
2603;DHT22;1311;47.966;7.958;2023-06-19T10:23:11;27.30;99.90
2603;DHT22;1311;47.966;7.958;2023-06-19T10:25:39;27.60;99.90
2603;DHT22;1311;47.966;7.958;2023-06-19T10:28:16;27.70;99.90
2603;DHT22;1311;47.966;7.958;2023-06-19T10:30:44;27.70;97.50
2603;DHT22;1311;47.966;7.958;2023-06-19T10:33:11;27.80;78.90
2603;DHT22;1311;47.966;7.958;2023-06-19T10:35:38;28.10;91.50
2603;DHT22;1311;47.966;7.958;2023-06-19T10:38:06;27.90;58.50
2603;DHT22;1311;47.966;7.958;2023-06-19T10:40:35;28.00;55.20
2603;DHT22;1311;47.966;7.958;2023-06-19T10:43:02;28.40;35.60
2603;DHT22;1311;47.966;7.958;2023-06-19T10:45:29;28.30;17.20
2603;DHT22;1311;47.966;7.958;2023-06-19T10:48:00;28.40;24.30
2603;DHT22;1311;47.966;7.958;2023-06-19T10:50:28;28.50;21.20
2603;DHT22;1311;47.966;7.958;2023-06-19T10:52:55;28.70;24.00
2603;DHT22;1311;47.966;7.958;2023-06-19T10:55:22;28.60;1.00
2603;DHT22;1311;47.966;7.958;2023-06-19T10:57:49;28.60;1.00
2603;DHT22;1311;47.966;7.958;2023-06-19T11:00:26;28.60;1.00
2603;DHT22;1311;47.966;7.958;2023-06-19T11:02:53;28.40;1.00
2603;DHT22;1311;47.966;7.958;2023-06-19T11:05:23;28.40;1.00
2603;DHT22;1311;47.966;7.958;2023-06-19T11:07:54;28.60;1.00
2603;DHT22;1311;47.966;7.958;2023-06-19T11:10:22;28.60;1.00
2603;DHT22;1311;47.966;7.958;2023-06-19T11:12:49;28.70;1.00
2603;DHT22;1311;47.966;7.958;2023-06-19T11:15:16;28.60;1.00
2603;DHT22;1311;47.966;7.958;2023-06-19T11:17:43;28.60;1.00
2603;DHT22;1311;47.966;7.958;2023-06-19T11:20:11;28.50;1.00
2603;DHT22;1311;47.966;7.958;2023-06-19T11:22:41;28.80;1.00
2603;DHT22;1311;47.966;7.958;2023-06-19T11:25:09;29.00;1.00
2603;DHT22;1311;47.966;7.958;2023-06-19T11:27:39;28.80;1.00
2603;DHT22;1311;47.966;7.958;2023-06-19T11:30:07;29.30;1.00
2603;DHT22;1311;47.966;7.958;2023-06-19T11:32:36;29.70;1.00
2603;DHT22;1311;47.966;7.958;2023-06-19T11:35:08;29.90;1.00
2603;DHT22;1311;47.966;7.958;2023-06-19T11:37:35;29.60;1.00
2603;DHT22;1311;47.966;7.958;2023-06-19T11:40:03;29.50;1.00
2603;DHT22;1311;47.966;7.958;2023-06-19T11:42:52;29.60;1.00
2603;DHT22;1311;47.966;7.958;2023-06-19T11:45:21;29.30;1.00
2603;DHT22;1311;47.966;7.958;2023-06-19T11:47:49;29.50;1.00
2603;DHT22;1311;47.966;7.958;2023-06-19T11:50:16;29.80;1.00
2603;DHT22;1311;47.966;7.958;2023-06-19T11:52:44;29.60;1.00
2603;DHT22;1311;47.966;7.958;2023-06-19T11:55:13;30.00;1.00
2603;DHT22;1311;47.966;7.958;2023-06-19T11:57:40;30.30;1.00
2603;DHT22;1311;47.966;7.958;2023-06-19T12:00:14;30.30;1.00
2603;DHT22;1311;47.966;7.958;2023-06-19T12:02:41;30.30;1.00
2603;DHT22;1311;47.966;7.958;2023-06-19T12:05:08;30.20;1.00
2603;DHT22;1311;47.966;7.958;2023-06-19T12:07:36;30.20;1.00
2603;DHT22;1311;47.966;7.958;2023-06-19T12:10:03;30.30;1.00
2603;DHT22;1311;47.966;7.958;2023-06-19T12:12:36;30.20;1.00
2603;DHT22;1311;47.966;7.958;2023-06-19T12:15:05;29.90;1.00
2603;DHT22;1311;47.966;7.958;2023-06-19T12:17:32;29.60;1.00
2603;DHT22;1311;47.966;7.958;2023-06-19T12:19:59;29.90;1.00
2603;DHT22;1311;47.966;7.958;2023-06-19T12:22:26;29.80;1.00
2603;DHT22;1311;47.966;7.958;2023-06-19T12:24:53;29.80;1.00
2603;DHT22;1311;47.966;7.958;2023-06-19T12:27:20;30.00;1.00
2603;DHT22;1311;47.966;7.958;2023-06-19T12:29:48;30.10;1.00
2603;DHT22;1311;47.966;7.958;2023-06-19T12:32:15;30.40;1.00
2603;DHT22;1311;47.966;7.958;2023-06-19T12:34:42;30.60;1.00
2603;DHT22;1311;47.966;7.958;2023-06-19T12:37:13;30.90;1.00
2603;DHT22;1311;47.966;7.958;2023-06-19T12:39:40;30.90;1.00
2603;DHT22;1311;47.966;7.958;2023-06-19T12:42:07;30.20;1.00
2603;DHT22;1311;47.966;7.958;2023-06-19T12:44:34;30.30;1.00
2603;DHT22;1311;47.966;7.958;2023-06-19T12:47:02;30.50;1.00
2603;DHT22;1311;47.966;7.958;2023-06-19T12:49:30;30.30;1.00
2603;DHT22;1311;47.966;7.958;2023-06-19T12:51:57;30.10;1.00
2603;DHT22;1311;47.966;7.958;2023-06-19T12:54:24;29.80;1.00
2603;DHT22;1311;47.966;7.958;2023-06-19T12:56:51;30.00;1.00
2603;DHT22;1311;47.966;7.958;2023-06-19T12:59:18;29.90;1.00
2603;DHT22;1311;47.966;7.958;2023-06-19T13:01:44;29.90;1.00
2603;DHT22;1311;47.966;7.958;2023-06-19T13:04:13;29.70;1.00
2603;DHT22;1311;47.966;7.958;2023-06-19T13:06:40;29.80;1.00
2603;DHT22;1311;47.966;7.958;2023-06-19T13:09:07;30.00;1.00
2603;DHT22;1311;47.966;7.958;2023-06-19T13:11:34;29.80;1.00
2603;DHT22;1311;47.966;7.958;2023-06-19T13:14:01;29.90;1.00
2603;DHT22;1311;47.966;7.958;2023-06-19T13:16:30;29.80;1.00
2603;DHT22;1311;47.966;7.958;2023-06-19T13:18:57;29.80;1.00
2603;DHT22;1311;47.966;7.958;2023-06-19T13:21:25;29.80;1.00
2603;DHT22;1311;47.966;7.958;2023-06-19T13:23:51;29.70;1.00
2603;DHT22;1311;47.966;7.958;2023-06-19T13:26:18;29.70;1.00
2603;DHT22;1311;47.966;7.958;2023-06-19T13:28:45;29.70;1.00
2603;DHT22;1311;47.966;7.958;2023-06-19T13:31:12;29.80;1.00
2603;DHT22;1311;47.966;7.958;2023-06-19T13:33:38;29.80;1.00
2603;DHT22;1311;47.966;7.958;2023-06-19T13:36:05;29.80;1.00
2603;DHT22;1311;47.966;7.958;2023-06-19T13:38:33;29.70;1.00
2603;DHT22;1311;47.966;7.958;2023-06-19T13:41:00;29.50;1.00
2603;DHT22;1311;47.966;7.958;2023-06-19T13:43:27;29.60;1.00
2603;DHT22;1311;47.966;7.958;2023-06-19T13:45:54;29.70;1.00
2603;DHT22;1311;47.966;7.958;2023-06-19T13:48:21;29.60;1.00
2603;DHT22;1311;47.966;7.958;2023-06-19T13:50:48;29.50;1.00
2603;DHT22;1311;47.966;7.958;2023-06-19T13:53:14;29.80;1.00
2603;DHT22;1311;47.966;7.958;2023-06-19T13:55:43;30.50;1.00
2603;DHT22;1311;47.966;7.958;2023-06-19T13:58:09;30.40;1.00
2603;DHT22;1311;47.966;7.958;2023-06-19T14:00:36;30.90;1.00
2603;DHT22;1311;47.966;7.958;2023-06-19T14:03:03;30.40;1.00
2603;DHT22;1311;47.966;7.958;2023-06-19T14:05:31;30.30;1.00
2603;DHT22;1311;47.966;7.958;2023-06-19T14:07:59;30.30;1.00
2603;DHT22;1311;47.966;7.958;2023-06-19T14:10:26;30.10;1.00
2603;DHT22;1311;47.966;7.958;2023-06-19T14:12:54;30.00;1.00
2603;DHT22;1311;47.966;7.958;2023-06-19T14:15:21;30.00;1.00
2603;DHT22;1311;47.966;7.958;2023-06-19T14:17:47;30.10;1.00
2603;DHT22;1311;47.966;7.958;2023-06-19T14:20:14;30.10;1.00
2603;DHT22;1311;47.966;7.958;2023-06-19T14:22:41;29.90;1.00
2603;DHT22;1311;47.966;7.958;2023-06-19T14:25:08;30.10;1.00
2603;DHT22;1311;47.966;7.958;2023-06-19T14:27:35;30.30;1.00
2603;DHT22;1311;47.966;7.958;2023-06-19T14:30:04;30.50;1.00
2603;DHT22;1311;47.966;7.958;2023-06-19T14:32:34;30.90;1.00
2603;DHT22;1311;47.966;7.958;2023-06-19T14:35:02;31.20;1.00
2603;DHT22;1311;47.966;7.958;2023-06-19T14:37:28;31.50;1.00
2603;DHT22;1311;47.966;7.958;2023-06-19T14:39:55;31.20;1.00
2603;DHT22;1311;47.966;7.958;2023-06-19T14:42:22;31.30;1.00
2603;DHT22;1311;47.966;7.958;2023-06-19T14:44:49;31.30;1.00
2603;DHT22;1311;47.966;7.958;2023-06-19T14:47:17;31.00;1.00
2603;DHT22;1311;47.966;7.958;2023-06-19T14:49:44;30.90;1.00
2603;DHT22;1311;47.966;7.958;2023-06-19T14:52:10;30.80;1.00
2603;DHT22;1311;47.966;7.958;2023-06-19T14:54:37;30.50;1.00
2603;DHT22;1311;47.966;7.958;2023-06-19T14:57:04;30.40;1.00
2603;DHT22;1311;47.966;7.958;2023-06-19T14:59:31;30.80;1.00
2603;DHT22;1311;47.966;7.958;2023-06-19T15:01:58;31.00;1.00
2603;DHT22;1311;47.966;7.958;2023-06-19T15:04:26;31.00;1.00
2603;DHT22;1311;47.966;7.958;2023-06-19T15:06:53;30.90;1.00
2603;DHT22;1311;47.966;7.958;2023-06-19T15:09:19;30.40;1.00
2603;DHT22;1311;47.966;7.958;2023-06-19T15:11:46;30.30;1.00
2603;DHT22;1311;47.966;7.958;2023-06-19T15:14:13;30.50;1.00
2603;DHT22;1311;47.966;7.958;2023-06-19T15:16:40;30.40;1.00
2603;DHT22;1311;47.966;7.958;2023-06-19T15:19:06;30.40;1.00
2603;DHT22;1311;47.966;7.958;2023-06-19T15:21:34;30.50;1.00
2603;DHT22;1311;47.966;7.958;2023-06-19T15:24:01;30.60;1.00
2603;DHT22;1311;47.966;7.958;2023-06-19T15:26:28;30.70;1.00
2603;DHT22;1311;47.966;7.958;2023-06-19T15:28:54;30.60;1.00
2603;DHT22;1311;47.966;7.958;2023-06-19T15:31:22;30.50;1.00
2603;DHT22;1311;47.966;7.958;2023-06-19T15:33:48;30.70;1.00
2603;DHT22;1311;47.966;7.958;2023-06-19T15:36:16;30.70;1.00
2603;DHT22;1311;47.966;7.958;2023-06-19T15:38:44;30.50;1.00
2603;DHT22;1311;47.966;7.958;2023-06-19T15:41:11;30.20;1.00
2603;DHT22;1311;47.966;7.958;2023-06-19T15:43:38;29.90;1.00
2603;DHT22;1311;47.966;7.958;2023-06-19T15:46:05;30.00;1.00
2603;DHT22;1311;47.966;7.958;2023-06-19T15:48:34;30.00;1.00
2603;DHT22;1311;47.966;7.958;2023-06-19T15:51:01;29.90;1.00
2603;DHT22;1311;47.966;7.958;2023-06-19T15:53:27;29.90;1.00
2603;DHT22;1311;47.966;7.958;2023-06-19T15:55:55;29.90;1.00
2603;DHT22;1311;47.966;7.958;2023-06-19T15:58:22;29.90;1.00
2603;DHT22;1311;47.966;7.958;2023-06-19T16:00:49;29.80;1.00
2603;DHT22;1311;47.966;7.958;2023-06-19T16:03:18;29.70;1.00
2603;DHT22;1311;47.966;7.958;2023-06-19T16:05:45;29.70;1.00
2603;DHT22;1311;47.966;7.958;2023-06-19T16:08:16;29.80;1.00